Time;durP1;ratioP1;P1;durP2;ratioP2;P2;SDS_P1;SDS_P2;PMS_P1;PMS_P2;Temp;Humidity;BMP_temperature;BMP_pressure;BME280_temperature;BME280_humidity;BME280_pressure;Samples;Min_cycle;Max_cycle;Signal;HPM_P1;HPM_P2
2023/02/06 00:00:34;;;;;;;67.40;6.47;;;;;;;5.35;100.00;104388.13;5015163;28;20071;-42
2023/02/06 00:02:59;;;;;;;69.68;5.03;;;;;;;5.40;100.00;104391.50;5031876;28;20350;-42
2023/02/06 00:05:25;;;;;;;65.43;5.30;;;;;;;5.48;100.00;104388.53;5017683;28;20026;-43
2023/02/06 00:07:50;;;;;;;46.35;5.10;;;;;;;5.44;100.00;104382.41;5011661;28;20041;-43
2023/02/06 00:10:16;;;;;;;56.88;4.80;;;;;;;5.42;100.00;104380.72;5013518;28;20038;-42
2023/02/06 00:12:41;;;;;;;61.47;7.47;;;;;;;5.42;100.00;104381.59;5018760;28;20536;-42
2023/02/06 00:15:07;;;;;;;44.55;4.40;;;;;;;5.41;100.00;104379.88;5031144;28;20120;-43
2023/02/06 00:17:36;;;;;;;48.17;5.30;;;;;;;5.42;100.00;104394.09;5031199;28;20465;-43
2023/02/06 00:20:04;;;;;;;46.28;3.92;;;;;;;5.39;100.00;104395.09;5015895;28;20068;-42
2023/02/06 00:22:29;;;;;;;66.65;5.65;;;;;;;5.36;100.00;104389.88;5012298;28;20084;-44
2023/02/06 00:24:54;;;;;;;44.42;4.10;;;;;;;5.34;100.00;104375.69;5022518;28;20025;-43
2023/02/06 00:27:20;;;;;;;58.83;5.53;;;;;;;5.33;100.00;104376.63;5013305;28;20034;-43
2023/02/06 00:29:45;;;;;;;58.97;6.03;;;;;;;5.30;100.00;104368.75;5012037;28;20026;-43
2023/02/06 00:32:10;;;;;;;49.92;5.30;;;;;;;5.29;100.00;104372.34;5011914;28;20050;-43
2023/02/06 00:34:36;;;;;;;54.17;5.15;;;;;;;5.31;100.00;104366.94;5018830;28;20099;-44
2023/02/06 00:37:01;;;;;;;60.08;4.93;;;;;;;5.30;100.00;104374.09;5018067;28;20048;-44
2023/02/06 00:39:26;;;;;;;52.90;5.05;;;;;;;5.30;100.00;104383.91;5031445;28;20076;-44
2023/02/06 00:41:54;;;;;;;39.67;4.20;;;;;;;5.28;100.00;104389.31;5031390;28;20045;-42
2023/02/06 00:44:20;;;;;;;48.40;5.18;;;;;;;5.31;100.00;104386.50;5026159;28;20382;-42
2023/02/06 00:46:45;;;;;;;62.85;4.05;;;;;;;5.30;100.00;104381.25;5011933;28;20081;-42
2023/02/06 00:49:11;;;;;;;37.45;4.20;;;;;;;5.29;100.00;104377.69;5011829;28;20030;-43
2023/02/06 00:51:37;;;;;;;52.72;4.80;;;;;;;5.28;100.00;104386.63;5011692;28;20064;-44
2023/02/06 00:54:03;;;;;;;54.90;4.35;;;;;;;5.28;100.00;104391.97;5011669;28;20034;-43
2023/02/06 00:56:28;;;;;;;57.90;4.93;;;;;;;5.29;100.00;104383.00;5031086;28;20076;-43
2023/02/06 00:58:54;;;;;;;58.40;6.28;;;;;;;5.27;100.00;104385.75;5031017;28;20400;-43
2023/02/06 01:01:19;;;;;;;51.65;5.45;;;;;;;5.26;100.00;104384.00;5020181;28;20033;-43
2023/02/06 01:03:44;;;;;;;57.92;4.60;;;;;;;5.29;100.00;104383.00;5011128;28;20299;-44
2023/02/06 01:06:10;;;;;;;50.40;4.55;;;;;;;5.32;100.00;104382.03;5029445;28;20041;-43
2023/02/06 01:08:35;;;;;;;52.85;4.00;;;;;;;5.33;100.00;104375.78;5023750;28;20022;-43
2023/02/06 01:11:00;;;;;;;49.08;6.47;;;;;;;5.34;100.00;104377.50;5011109;28;20026;-43
2023/02/06 01:13:26;;;;;;;58.95;4.10;;;;;;;5.32;100.00;104377.59;5017000;28;20506;-43
2023/02/06 01:15:51;;;;;;;64.97;4.30;;;;;;;5.30;100.00;104374.09;5038375;28;20030;-43
2023/02/06 01:18:16;;;;;;;51.58;5.28;;;;;;;5.27;100.00;104380.41;5014891;28;20101;-43
2023/02/06 01:20:42;;;;;;;68.88;5.28;;;;;;;5.26;100.00;104378.66;5031030;28;20029;-43
2023/02/06 01:23:07;;;;;;;49.08;4.72;;;;;;;5.30;100.00;104382.09;5030814;28;20032;-43
2023/02/06 01:25:32;;;;;;;60.78;4.72;;;;;;;5.29;100.00;104375.00;5017464;28;20546;-43
2023/02/06 01:27:58;;;;;;;57.53;5.50;;;;;;;5.26;100.00;104378.66;5010771;28;20034;-44
2023/02/06 01:30:23;;;;;;;60.28;5.00;;;;;;;5.26;100.00;104373.31;5010895;28;20477;-44
2023/02/06 01:32:49;;;;;;;54.53;4.97;;;;;;;5.28;100.00;104378.63;5010432;28;20045;-43
2023/02/06 01:35:14;;;;;;;53.80;3.83;;;;;;;5.25;100.00;104378.75;5020079;28;20061;-42
2023/02/06 01:37:40;;;;;;;51.60;5.57;;;;;;;5.26;100.00;104377.81;5021256;28;20083;-43
2023/02/06 01:40:08;;;;;;;54.38;5.05;;;;;;;5.24;100.00;104369.88;5010917;28;20481;-42
2023/02/06 01:42:34;;;;;;;52.45;4.10;;;;;;;5.25;100.00;104378.75;5021605;28;20040;-42
2023/02/06 01:45:42;;;;;;;63.00;4.75;;;;;;;5.24;100.00;104371.69;5017118;28;20029;-42
2023/02/06 01:48:12;;;;;;;49.20;5.38;;;;;;;5.25;100.00;104376.06;5008221;28;20034;-42
2023/02/06 01:50:39;;;;;;;39.40;4.90;;;;;;;5.24;100.00;104380.53;5019635;28;20036;-42
2023/02/06 01:53:05;;;;;;;56.00;4.88;;;;;;;5.22;100.00;104381.53;5030308;28;20033;-43
2023/02/06 01:55:31;;;;;;;58.53;4.57;;;;;;;5.22;100.00;104378.88;5011401;28;20040;-42
2023/02/06 01:57:56;;;;;;;55.55;4.78;;;;;;;5.26;100.00;104375.13;5028670;28;20021;-42
2023/02/06 02:00:21;;;;;;;52.25;4.13;;;;;;;5.24;100.00;104369.88;5009542;28;20033;-42
2023/02/06 02:02:48;;;;;;;62.15;4.22;;;;;;;5.23;100.00;104359.22;5010587;28;20030;-43
2023/02/06 02:05:15;;;;;;;49.35;3.83;;;;;;;5.28;100.00;104359.91;5019976;28;20025;-43
2023/02/06 02:07:45;;;;;;;51.72;4.82;;;;;;;5.31;100.00;104370.47;5029095;28;20459;-43
2023/02/06 02:10:10;;;;;;;39.50;3.88;;;;;;;5.27;100.00;104360.88;5028453;28;20418;-43
2023/02/06 02:12:36;;;;;;;50.28;3.65;;;;;;;5.22;100.00;104355.69;5029489;28;20029;-42
2023/02/06 02:15:01;;;;;;;38.65;3.95;;;;;;;5.21;100.00;104363.75;5030019;28;20025;-42
2023/02/06 02:17:40;;;;;;;43.97;4.35;;;;;;;5.21;100.00;104353.06;5031018;28;20037;-42
2023/02/06 02:20:33;;;;;;;40.80;4.10;;;;;;;5.19;100.00;104349.63;5029370;28;20036;-43
2023/02/06 02:23:15;;;;;;;40.90;3.75;;;;;;;5.22;100.00;104344.16;5011389;28;20109;-43
2023/02/06 02:26:17;;;;;;;50.97;4.68;;;;;;;5.21;100.00;104342.38;5024278;28;20030;-43
2023/02/06 02:29:16;;;;;;;50.58;5.30;;;;;;;5.19;100.00;104338.94;5028383;28;20720;-43
2023/02/06 02:32:15;;;;;;;59.40;4.85;;;;;;;5.13;100.00;104331.16;5026377;28;20073;-44
2023/02/06 02:35:04;;;;;;;57.33;4.57;;;;;;;5.09;100.00;104332.22;5015883;28;20034;-43
2023/02/06 02:37:51;;;;;;;44.03;4.18;;;;;;;5.05;100.00;104334.13;5012985;28;20104;-44
2023/02/06 02:40:53;;;;;;;43.55;4.45;;;;;;;5.06;100.00;104328.72;5014532;28;20062;-44
2023/02/06 02:43:41;;;;;;;51.80;5.60;;;;;;;4.99;100.00;104321.88;5024145;28;20068;-43
2023/02/06 02:46:16;;;;;;;51.35;4.38;;;;;;;4.98;100.00;104320.16;5028410;28;20040;-44
2023/02/06 02:48:45;;;;;;;42.85;3.90;;;;;;;4.98;100.00;104327.28;5031973;28;20476;-44
2023/02/06 02:51:10;;;;;;;;;;;;;;;4.96;100.00;104327.34;5015326;28;20022;-43
2023/02/06 02:53:35;;;;;;;38.85;4.38;;;;;;;4.94;100.00;104323.84;5032946;28;20364;-43
2023/02/06 02:56:01;;;;;;;38.40;3.70;;;;;;;4.98;100.00;104327.28;5020177;28;20416;-43
2023/02/06 02:58:30;;;;;;;51.90;5.05;;;;;;;4.97;100.00;104322.88;5014609;28;20084;-43
2023/02/06 03:01:02;;;;;;;47.90;4.47;;;;;;;4.94;100.00;104323.84;5031908;28;20032;-43
2023/02/06 03:03:29;;;;;;;59.88;5.75;;;;;;;4.91;100.00;104329.31;5050360;28;20112;-42
2023/02/06 03:05:59;;;;;;;62.45;5.72;;;;;;;4.93;100.00;104331.94;5018952;28;20030;-43
2023/02/06 03:08:42;;;;;;;43.97;4.32;;;;;;;4.94;100.00;104321.19;5015759;28;20133;-42
2023/02/06 03:11:17;;;;;;;40.17;3.50;;;;;;;4.94;100.00;104323.84;5033629;28;20026;-42
2023/02/06 03:13:48;;;;;;;41.40;3.92;;;;;;;4.94;100.00;104321.19;5031508;28;20026;-42
2023/02/06 03:16:28;;;;;;;48.95;3.78;;;;;;;4.94;100.00;104328.34;5023190;28;20076;-41
2023/02/06 03:19:05;;;;;;;47.05;4.13;;;;;;;4.97;100.00;104333.53;5031960;28;20038;-41
2023/02/06 03:21:31;;;;;;;44.65;4.60;;;;;;;4.97;100.00;104331.75;5020895;28;20121;-42
2023/02/06 03:24:02;;;;;;;39.75;3.90;;;;;;;4.94;100.00;104331.88;5029001;28;20521;-43
2023/02/06 03:26:29;;;;;;;38.97;4.25;;;;;;;4.93;100.00;104342.63;5028652;28;20120;-42
2023/02/06 03:29:00;;;;;;;34.85;3.92;;;;;;;4.93;100.00;104348.81;5030120;28;20104;-42
2023/02/06 03:31:29;;;;;;;48.03;4.68;;;;;;;4.93;100.00;104342.63;5033475;28;20112;-43
2023/02/06 03:34:00;;;;;;;57.17;4.28;;;;;;;4.92;100.00;104341.72;5031448;28;20048;-42
2023/02/06 03:36:27;;;;;;;55.70;4.65;;;;;;;4.91;100.00;104345.34;5015353;28;20084;-43
2023/02/06 03:38:52;;;;;;;38.33;4.60;;;;;;;4.91;100.00;104337.31;5017923;28;20416;-42
2023/02/06 03:41:22;;;;;;;53.38;4.50;;;;;;;4.92;100.00;104336.38;5031633;28;20037;-43
2023/02/06 03:43:48;;;;;;;56.63;4.82;;;;;;;4.92;100.00;104340.84;5021145;28;20393;-42
2023/02/06 03:46:14;;;;;;;55.20;5.80;;;;;;;4.91;100.00;104341.81;5029993;28;20033;-42
2023/02/06 03:48:42;;;;;;;48.65;4.50;;;;;;;4.90;100.00;104343.59;5030922;28;20029;-43
2023/02/06 03:51:13;;;;;;;39.38;3.83;;;;;;;4.90;100.00;104346.28;5032691;28;20057;-42
2023/02/06 03:53:39;;;;;;;55.92;5.18;;;;;;;4.89;100.00;104339.19;5031447;28;20065;-43
2023/02/06 03:56:09;;;;;;;41.03;4.10;;;;;;;4.88;100.00;104340.13;5020200;28;20452;-44
2023/02/06 03:58:34;;;;;;;81.75;8.27;;;;;;;4.84;100.00;104333.16;5042786;28;20075;-42
2023/02/06 04:01:00;;;;;;;44.95;5.32;;;;;;;4.78;100.00;104336.91;5032580;28;20053;-44
2023/02/06 04:03:26;;;;;;;42.45;3.70;;;;;;;4.75;100.00;104328.16;5031996;28;20091;-44
2023/02/06 04:05:51;;;;;;;40.95;4.72;;;;;;;4.69;100.00;104328.41;5021770;28;20061;-43
2023/02/06 04:08:16;;;;;;;46.97;3.67;;;;;;;4.64;100.00;104333.06;5011597;28;20133;-43
2023/02/06 04:10:42;;;;;;;63.47;4.38;;;;;;;4.58;100.00;104337.69;5030762;28;20488;-42
2023/02/06 04:13:07;;;;;;;48.15;4.65;;;;;;;4.57;100.00;104327.91;5032338;28;20025;-42
2023/02/06 04:15:32;;;;;;;47.28;3.92;;;;;;;4.56;100.00;104330.66;5031314;28;20029;-44
2023/02/06 04:17:58;;;;;;;42.75;3.60;;;;;;;4.52;100.00;104327.22;5032091;28;20022;-44
2023/02/06 04:20:23;;;;;;;50.92;5.05;;;;;;;4.51;100.00;104325.50;5028139;28;20040;-42
2023/02/06 04:22:49;;;;;;;52.38;4.25;;;;;;;4.48;100.00;104328.28;5020073;28;20033;-43
2023/02/06 04:25:14;;;;;;;44.80;3.72;;;;;;;4.50;100.00;104331.78;5022837;28;20021;-41
2023/02/06 04:27:39;;;;;;;52.15;3.80;;;;;;;4.49;100.00;104337.16;5031360;28;20026;-43
2023/02/06 04:30:05;;;;;;;50.95;4.07;;;;;;;4.47;100.00;104336.31;5016562;28;20342;-44
2023/02/06 04:32:31;;;;;;;36.88;4.13;;;;;;;4.44;100.00;104339.97;5029208;28;20411;-42
2023/02/06 04:34:56;;;;;;;40.28;3.30;;;;;;;4.41;100.00;104340.09;5030563;28;20033;-42
2023/02/06 04:37:21;;;;;;;53.35;4.13;;;;;;;4.39;100.00;104344.59;5031572;28;20442;-42
2023/02/06 04:39:47;;;;;;;31.63;3.92;;;;;;;4.39;100.00;104353.47;5019749;28;20384;-44
2023/02/06 04:42:12;;;;;;;45.55;4.32;;;;;;;4.41;100.00;104356.09;5011889;28;20651;-42
2023/02/06 04:44:38;;;;;;;50.30;4.70;;;;;;;4.40;100.00;104346.38;5011822;28;20025;-43
2023/02/06 04:47:03;;;;;;;27.30;4.03;;;;;;;4.40;100.00;104349.03;5029821;28;20057;-43
2023/02/06 04:49:29;;;;;;;39.75;3.40;;;;;;;4.40;100.00;104349.03;5029330;28;20033;-42
2023/02/06 04:51:54;;;;;;;46.53;4.05;;;;;;;4.44;100.00;104360.44;5030350;28;20081;-43
2023/02/06 04:54:19;;;;;;;30.83;3.88;;;;;;;4.45;100.00;104363.06;5011541;28;20429;-43
2023/02/06 04:56:45;;;;;;;45.25;4.72;;;;;;;4.42;100.00;104354.28;5025310;28;20251;-43
2023/02/06 04:59:11;;;;;;;54.42;4.80;;;;;;;4.42;100.00;104349.81;5029617;28;20029;-43
2023/02/06 05:01:36;;;;;;;41.25;3.83;;;;;;;4.41;100.00;104353.44;5029672;28;20040;-44
2023/02/06 05:04:01;;;;;;;51.33;5.45;;;;;;;4.39;100.00;104352.59;5031090;28;20041;-43
2023/02/06 05:06:28;;;;;;;34.17;4.47;;;;;;;4.39;100.00;104347.28;5018302;28;20033;-43
2023/02/06 05:08:54;;;;;;;53.40;4.35;;;;;;;4.38;100.00;104342.88;5013731;28;20092;-42
2023/02/06 05:11:19;;;;;;;45.10;3.58;;;;;;;4.38;100.00;104354.41;5013540;28;20045;-42
2023/02/06 05:13:44;;;;;;;43.58;4.38;;;;;;;4.35;100.00;104357.19;5021535;28;20029;-42
2023/02/06 05:16:12;;;;;;;42.15;4.28;;;;;;;4.35;100.00;104351.00;5021387;28;20507;-42
2023/02/06 05:18:38;;;;;;;45.42;4.18;;;;;;;4.34;100.00;104343.91;5011917;28;20122;-42
2023/02/06 05:21:04;;;;;;;58.03;5.35;;;;;;;4.29;100.00;104340.53;5011584;28;20116;-42
2023/02/06 05:23:29;;;;;;;39.70;3.78;;;;;;;4.23;100.00;104332.75;5019110;28;20026;-42
2023/02/06 05:25:55;;;;;;;63.25;5.68;;;;;;;4.21;100.00;104332.78;5017884;28;20038;-43
2023/02/06 05:28:20;;;;;;;45.97;5.10;;;;;;;4.18;100.00;104332.91;5030864;28;20452;-42
2023/02/06 05:30:45;;;;;;;45.17;4.80;;;;;;;4.14;100.00;104339.28;5029624;28;20467;-44
2023/02/06 05:33:11;;;;;;;61.25;6.50;;;;;;;4.10;100.00;104330.50;5024031;28;20053;-43
2023/02/06 05:35:37;;;;;;;44.83;5.22;;;;;;;4.08;100.00;104321.72;5027294;28;20112;-43
2023/02/06 05:38:02;;;;;;;66.72;5.68;;;;;;;4.08;100.00;104337.72;5014862;28;20029;-43
2023/02/06 05:40:28;;;;;;;40.35;4.72;;;;;;;4.12;100.00;104334.00;5011063;28;20558;-43
2023/02/06 05:42:53;;;;;;;57.42;5.68;;;;;;;4.19;100.00;104329.34;5016577;28;20037;-43
2023/02/06 05:45:18;;;;;;;64.72;4.72;;;;;;;4.21;100.00;104323.94;5020551;28;20120;-42
2023/02/06 05:47:44;;;;;;;66.70;5.15;;;;;;;4.21;100.00;104326.59;5016414;28;20503;-43
2023/02/06 05:50:09;;;;;;;52.33;5.63;;;;;;;4.27;100.00;104332.59;5026945;28;20026;-43
2023/02/06 05:52:34;;;;;;;60.08;5.97;;;;;;;4.34;100.00;104338.56;5010601;28;20029;-43
2023/02/06 05:55:00;;;;;;;39.80;4.20;;;;;;;4.41;100.00;104337.44;5022895;28;20025;-42
2023/02/06 05:57:25;;;;;;;37.83;4.57;;;;;;;4.48;100.00;104330.94;5013560;28;20109;-42
2023/02/06 05:59:50;;;;;;;62.67;5.75;;;;;;;4.54;100.00;104330.72;5013530;28;20068;-42
2023/02/06 06:02:15;;;;;;;67.18;5.90;;;;;;;4.62;100.00;104333.97;5024413;28;20044;-43
2023/02/06 06:04:41;;;;;;;53.05;5.50;;;;;;;4.70;100.00;104333.69;5030412;28;20052;-42
2023/02/06 06:07:06;;;;;;;56.70;7.05;;;;;;;4.68;100.00;104338.19;5028906;28;20026;-44
2023/02/06 06:09:32;;;;;;;61.75;6.53;;;;;;;4.72;100.00;104336.31;5026730;28;20104;-43
2023/02/06 06:11:57;;;;;;;68.82;6.30;;;;;;;4.72;100.00;104337.16;5024548;28;20533;-44
2023/02/06 06:14:22;;;;;;;45.97;5.15;;;;;;;4.74;100.00;104334.41;5022013;28;20022;-43
2023/02/06 06:16:48;;;;;;;61.40;5.30;;;;;;;4.76;100.00;104341.44;5007368;28;20885;-43
2023/02/06 06:19:13;;;;;;;53.30;5.18;;;;;;;4.77;100.00;104342.34;5007896;28;20033;-43
2023/02/06 06:21:38;;;;;;;76.88;5.70;;;;;;;4.77;100.00;104329.00;5024204;28;20108;-42
2023/02/06 06:24:04;;;;;;;46.22;5.20;;;;;;;4.70;100.00;104336.34;5021875;28;20030;-42
2023/02/06 06:26:29;;;;;;;52.22;5.82;;;;;;;4.70;100.00;104335.47;5023062;28;20465;-44
2023/02/06 06:28:55;;;;;;;66.95;5.88;;;;;;;4.65;100.00;104330.31;5026485;28;20440;-45
2023/02/06 06:31:20;;;;;;;59.00;5.55;;;;;;;4.58;100.00;104329.69;5023458;28;20133;-43
2023/02/06 06:33:46;;;;;;;50.35;4.95;;;;;;;4.53;100.00;104333.41;5010867;28;20053;-42
2023/02/06 06:36:12;;;;;;;53.67;6.22;;;;;;;4.52;100.00;104326.34;5010539;28;20182;-44
2023/02/06 06:38:38;;;;;;;54.45;5.78;;;;;;;4.51;100.00;104325.50;5020906;28;20037;-45
2023/02/06 06:41:03;;;;;;;65.63;6.82;;;;;;;4.52;100.00;104324.56;5014346;28;20030;-43
2023/02/06 06:43:29;;;;;;;62.58;5.78;;;;;;;4.53;100.00;104323.66;5030000;28;20080;-43
2023/02/06 06:45:55;;;;;;;46.33;4.78;;;;;;;4.55;100.00;104324.44;5019901;28;20038;-44
2023/02/06 06:48:21;;;;;;;57.45;5.05;;;;;;;4.52;100.00;104321.88;5012870;28;20026;-43
2023/02/06 06:50:49;;;;;;;35.63;4.65;;;;;;;4.55;100.00;104321.75;5015271;28;20033;-43
2023/02/06 06:53:14;;;;;;;47.40;5.15;;;;;;;4.61;100.00;104323.38;5023707;28;20026;-42
2023/02/06 06:55:40;;;;;;;42.30;5.32;;;;;;;4.64;100.00;104335.72;5019256;28;20540;-43
2023/02/06 06:58:05;;;;;;;57.25;6.05;;;;;;;4.60;100.00;104332.28;5015805;28;20416;-42
2023/02/06 07:00:30;;;;;;;50.30;5.40;;;;;;;4.63;100.00;104332.16;5021076;28;20029;-43
2023/02/06 07:02:56;;;;;;;54.50;4.57;;;;;;;4.59;100.00;104339.41;5023057;28;20079;-43
2023/02/06 07:05:21;;;;;;;54.65;4.93;;;;;;;4.61;100.00;104342.91;5029680;28;20026;-42
2023/02/06 07:07:46;;;;;;;57.22;4.47;;;;;;;4.68;100.00;104340.84;5020031;28;20042;-44
2023/02/06 07:10:12;;;;;;;33.78;3.63;;;;;;;4.62;100.00;104338.44;5014328;28;20037;-43
2023/02/06 07:12:38;;;;;;;59.22;5.85;;;;;;;4.58;100.00;104342.13;5014271;28;20568;-45
2023/02/06 07:15:04;;;;;;;54.33;5.40;;;;;;;4.52;100.00;104337.88;5029329;28;20039;-44
2023/02/06 07:17:29;;;;;;;69.60;6.72;;;;;;;4.48;100.00;104336.28;5030726;28;20037;-44
2023/02/06 07:19:55;;;;;;;46.42;4.22;;;;;;;4.47;100.00;104337.19;5031752;28;20124;-43
2023/02/06 07:22:20;;;;;;;45.08;4.97;;;;;;;4.48;100.00;104325.63;5018596;28;20120;-43
2023/02/06 07:24:46;;;;;;;49.85;5.78;;;;;;;4.43;100.00;104327.56;5030727;28;20036;-43
2023/02/06 07:27:11;;;;;;;38.35;5.60;;;;;;;4.42;100.00;104323.16;5033367;28;20164;-43
2023/02/06 07:29:36;;;;;;;28.35;3.88;;;;;;;4.46;100.00;104326.59;5032953;28;20473;-43
2023/02/06 07:32:03;;;;;;;40.13;4.60;;;;;;;4.50;100.00;104323.75;5030948;28;20049;-44
2023/02/06 07:34:28;;;;;;;46.40;5.40;;;;;;;4.51;100.00;104325.50;5030056;28;20428;-43
2023/02/06 07:36:54;;;;;;;44.30;5.47;;;;;;;4.53;100.00;104320.97;5021352;28;20025;-43
2023/02/06 07:39:19;;;;;;;54.10;6.15;;;;;;;4.57;100.00;104319.06;5013808;28;20028;-45
2023/02/06 07:41:47;;;;;;;44.65;4.15;;;;;;;4.64;100.00;104319.72;5013097;28;20038;-43
2023/02/06 07:44:12;;;;;;;58.90;5.40;;;;;;;4.70;100.00;104324.81;5013281;28;20036;-40
2023/02/06 07:46:37;;;;;;;66.40;6.95;;;;;;;4.75;100.00;104317.50;5013522;28;20026;-43
2023/02/06 07:49:03;;;;;;;63.50;5.97;;;;;;;4.79;100.00;104327.13;5013453;28;20083;-43
2023/02/06 07:51:28;;;;;;;45.75;5.43;;;;;;;4.86;100.00;104320.63;5014212;28;20038;-42
2023/02/06 07:53:54;;;;;;;44.88;5.95;;;;;;;4.92;100.00;104322.19;5013821;28;20038;-42
2023/02/06 07:56:22;;;;;;;55.03;6.40;;;;;;;5.00;100.00;104328.09;5013989;28;20057;-43
2023/02/06 07:58:53;;;;;;;60.47;5.13;;;;;;;5.11;100.00;104325.88;5013187;28;20032;-43
2023/02/06 08:01:20;;;;;;;49.72;5.00;;;;;;;5.19;100.00;104330.94;5013681;28;20032;-43
2023/02/06 08:03:53;;;;;;;40.38;4.82;;;;;;;5.24;100.00;104326.28;5012208;28;20050;-42
2023/02/06 08:06:20;;;;;;;43.83;4.53;;;;;;;5.28;100.00;104319.84;5011824;28;20022;-44
2023/02/06 08:08:46;;;;;;;45.30;5.43;;;;;;;5.21;100.00;104316.59;4995478;28;20026;-43
2023/02/06 08:11:14;;;;;;;36.38;4.72;;;;;;;5.18;100.00;104311.34;5012834;28;20030;-44
2023/02/06 08:13:39;;;;;;;;;;;;;;;5.20;100.00;104298.81;5011586;28;20026;-42
2023/02/06 08:16:06;;;;;;;34.42;4.63;;;;;;;5.34;100.00;104300.91;5012511;28;20009;-43
2023/02/06 08:18:32;;;;;;;61.75;5.10;;;;;;;5.36;100.00;104288.38;5012742;28;20033;-43
2023/02/06 08:21:09;;;;;;;40.08;4.93;;;;;;;5.39;100.00;104282.03;5012483;28;20095;-42
2023/02/06 08:23:35;;;;;;;37.03;6.43;;;;;;;5.49;100.00;104262.88;5012001;28;20186;-42
2023/02/06 08:26:06;;;;;;;49.88;5.68;;;;;;;5.66;100.00;104274.66;5012672;28;20522;-42
2023/02/06 08:28:33;;;;;;;42.83;5.97;;;;;;;5.71;100.00;104265.53;5012659;28;20030;-43
2023/02/06 08:30:59;;;;;;;50.75;5.18;;;;;;;5.85;100.00;104259.56;5012308;28;20425;-43
2023/02/06 08:33:25;;;;;;;36.28;4.95;;;;;;;6.09;100.00;104267.47;5012787;28;20054;-43
2023/02/06 08:35:51;;;;;;;41.00;5.68;;;;;;;6.27;100.00;104263.97;5012721;28;20030;-43
2023/02/06 08:38:16;;;;;;;35.10;4.75;;;;;;;6.31;100.00;104257.53;5012322;28;20080;-43
2023/02/06 08:40:41;;;;;;;48.47;6.53;;;;;;;6.27;100.00;104250.59;5012075;28;20050;-44
2023/02/06 08:43:06;;;;;;;59.85;6.05;;;;;;;6.50;100.00;104243.31;5012066;28;20478;-43
2023/02/06 08:45:32;;;;;;;43.40;5.57;;;;;;;7.19;100.00;104234.66;5011813;28;20500;-43
2023/02/06 08:47:57;;;;;;;48.85;8.52;;;;;;;8.40;100.00;104236.38;5011913;28;20489;-43
2023/02/06 08:50:22;;;;;;;42.70;6.28;;;;;;;9.42;100.00;104226.91;5011825;28;20468;-45
2023/02/06 08:52:48;;;;;;;42.63;5.70;;;;;;;9.87;100.00;104200.00;5011824;28;20104;-44
2023/02/06 08:55:13;;;;;;;39.03;6.25;;;;;;;9.70;100.00;104163.41;5012028;28;20026;-42
2023/02/06 08:57:39;;;;;;;38.60;5.13;;;;;;;9.39;100.00;104162.56;5012041;28;20053;-43
2023/02/06 09:00:04;;;;;;;41.97;5.30;;;;;;;8.89;100.00;104158.38;5011670;28;20036;-43
2023/02/06 09:02:30;;;;;;;40.72;5.60;;;;;;;8.47;100.00;104167.94;5011730;28;20029;-43
2023/02/06 09:04:55;;;;;;;57.45;5.40;;;;;;;8.09;100.00;104172.75;5011760;28;20029;-42
2023/02/06 09:07:21;;;;;;;46.22;5.40;;;;;;;8.18;100.00;104180.28;5011986;28;20026;-43
2023/02/06 09:09:47;;;;;;;47.22;5.78;;;;;;;9.02;100.00;104188.94;5011864;28;20038;-43
2023/02/06 09:12:12;;;;;;;48.42;6.47;;;;;;;9.93;100.00;104179.94;5012346;28;20451;-43
2023/02/06 09:14:37;;;;;;;37.28;5.95;;;;;;;11.03;100.00;104164.69;5011642;28;20066;-43
2023/02/06 09:17:03;;;;;;;35.78;7.05;;;;;;;11.93;100.00;104163.00;5011049;28;20028;-43
2023/02/06 09:19:28;;;;;;;32.22;6.03;;;;;;;12.46;100.00;104162.78;5011066;28;20060;-43
2023/02/06 09:21:53;;;;;;;44.13;6.78;;;;;;;13.19;100.00;104159.03;5011434;28;20501;-43
2023/02/06 09:24:19;;;;;;;41.75;6.28;;;;;;;13.36;100.00;104169.47;5010943;28;20030;-44
2023/02/06 09:26:44;;;;;;;48.20;7.15;;;;;;;13.67;100.00;104161.66;5010851;28;20073;-44
2023/02/06 09:29:11;;;;;;;38.47;5.65;;;;;;;13.67;100.00;104155.38;5010842;28;20121;-44
2023/02/06 09:31:38;;;;;;;36.78;5.32;;;;;;;13.73;97.54;104153.03;5010669;28;20108;-44
2023/02/06 09:34:04;;;;;;;51.42;5.63;;;;;;;13.46;94.54;104147.13;5010442;28;20428;-45
2023/02/06 09:36:32;;;;;;;50.22;5.82;;;;;;;13.27;95.34;104136.84;5010426;28;20109;-43
2023/02/06 09:38:58;;;;;;;40.58;4.78;;;;;;;13.14;93.73;104131.50;5011417;28;20022;-44
2023/02/06 09:41:26;;;;;;;44.63;5.43;;;;;;;13.31;95.11;104128.38;5011017;28;20026;-43
2023/02/06 09:43:54;;;;;;;49.47;6.70;;;;;;;13.11;96.16;104131.72;5010941;28;20432;-43
2023/02/06 09:46:25;;;;;;;36.17;5.13;;;;;;;13.13;92.46;104118.94;5009209;28;20026;-44
2023/02/06 09:48:51;;;;;;;49.45;5.68;;;;;;;13.41;95.85;104128.53;5009660;28;20065;-45
2023/02/06 09:51:26;;;;;;;49.70;6.53;;;;;;;13.80;91.82;104123.66;5010065;28;20061;-43
2023/02/06 09:53:54;;;;;;;68.68;7.53;;;;;;;13.83;88.15;104134.22;5010928;28;20029;-44
2023/02/06 09:56:21;;;;;;;52.05;6.97;;;;;;;13.72;88.00;104132.38;5009307;28;20035;-44
2023/02/06 09:59:13;;;;;;;49.17;5.70;;;;;;;13.63;87.28;104138.50;5009196;28;20388;-44
2023/02/06 10:01:53;;;;;;;42.65;5.10;;;;;;;13.71;90.12;104146.88;5008537;28;20084;-44
2023/02/06 10:04:45;;;;;;;44.30;4.63;;;;;;;13.77;87.28;104140.09;5010421;28;20041;-44
2023/02/06 10:07:21;;;;;;;34.90;4.13;;;;;;;13.69;85.46;104157.00;5010717;28;20041;-44
2023/02/06 10:09:57;;;;;;;44.03;5.63;;;;;;;13.27;83.75;104144.97;5009583;28;20076;-43
2023/02/06 10:12:38;;;;;;;45.25;4.50;;;;;;;13.25;86.62;104145.06;5009317;28;20061;-43
2023/02/06 10:15:11;;;;;;;38.10;4.88;;;;;;;13.00;88.58;104148.78;5009797;28;20113;-43
2023/02/06 10:17:45;;;;;;;50.38;4.95;;;;;;;13.47;84.46;104148.81;5010614;28;20030;-43
2023/02/06 10:20:18;;;;;;;42.80;4.35;;;;;;;12.87;85.30;104156.94;5009331;28;20033;-44
2023/02/06 10:23:11;;;;;;;45.13;5.00;;;;;;;12.83;82.38;104149.22;5009408;28;20123;-43
2023/02/06 10:25:42;;;;;;;46.33;4.70;;;;;;;12.94;84.16;104157.38;5010636;28;20041;-43
2023/02/06 10:28:25;;;;;;;56.78;5.28;;;;;;;13.02;86.78;104148.66;5010641;28;20084;-43
2023/02/06 10:31:08;;;;;;;47.47;4.15;;;;;;;13.43;81.11;104158.16;5010425;28;20053;-43
2023/02/06 10:33:46;;;;;;;35.70;3.88;;;;;;;13.16;79.81;104161.97;5009490;28;20497;-43
2023/02/06 10:36:40;;;;;;;42.88;3.70;;;;;;;13.18;77.29;104158.19;5010479;28;20033;-44
2023/02/06 10:39:08;;;;;;;40.50;4.53;;;;;;;12.99;78.93;104154.31;5014146;28;20073;-44
2023/02/06 10:41:37;;;;;;;47.05;6.82;;;;;;;12.47;81.56;104154.53;5029714;28;20476;-44
2023/02/06 10:44:21;;;;;;;43.72;5.00;;;;;;;12.89;80.28;104154.16;5031472;28;20021;-43
2023/02/06 10:46:49;;;;;;;40.92;3.67;;;;;;;13.30;80.74;104166.38;5032425;28;20068;-43
2023/02/06 10:49:24;;;;;;;46.53;4.43;;;;;;;13.32;78.79;104157.16;5032929;28;20555;-43
2023/02/06 10:51:52;;;;;;;44.25;4.28;;;;;;;13.70;77.93;104158.69;5032962;28;20029;-42
2023/02/06 10:54:23;;;;;;;45.47;5.25;;;;;;;14.17;74.76;104167.56;5016012;28;20481;-42
2023/02/06 10:56:50;;;;;;;43.47;4.20;;;;;;;14.51;72.49;104162.09;5033684;28;20030;-43
2023/02/06 10:59:27;;;;;;;37.92;4.07;;;;;;;14.21;71.48;104171.75;5034101;28;20528;-43
2023/02/06 11:02:17;;;;;;;46.38;5.28;;;;;;;12.94;76.19;104158.22;5033491;28;20439;-44
2023/02/06 11:04:50;;;;;;;50.17;6.00;;;;;;;13.04;77.19;104162.94;5033023;28;20049;-43
2023/02/06 11:07:28;;;;;;;44.83;4.15;;;;;;;12.40;80.99;104147.88;5032083;28;20029;-43
2023/02/06 11:09:53;;;;;;;;;;;;;;;11.91;84.78;104140.63;5032845;28;20119;-43
2023/02/06 11:12:33;;;;;;;43.67;3.95;;;;;;;11.87;84.55;104155.31;5034026;28;19992;-43
2023/02/06 11:15:03;;;;;;;51.90;4.18;;;;;;;11.89;85.27;104149.81;5032073;28;20406;-42
2023/02/06 11:17:29;;;;;;;38.25;4.60;;;;;;;11.74;85.88;104154.44;5032223;28;20029;-43
2023/02/06 11:20:00;;;;;;;49.42;7.35;;;;;;;11.41;87.96;104147.75;5032384;28;20049;-43
2023/02/06 11:22:30;;;;;;;53.33;4.97;;;;;;;10.89;88.47;104140.53;5033135;28;20051;-43